Time;durP1;ratioP1;P1;durP2;ratioP2;P2;SDS_P1;SDS_P2;PMS_P1;PMS_P2;Temp;Humidity;BMP_temperature;BMP_pressure;BME280_temperature;BME280_humidity;BME280_pressure;Samples;Min_cycle;Max_cycle;Signal;HPM_P1;HPM_P2
2022/08/10 00:02:17;;;;;;;5.70;5.30;;;;;;;22.46;52.08;95025.66;5095059;28;20289;-71
2022/08/10 00:04:45;;;;;;;6.20;5.45;;;;;;;22.45;52.28;95023.31;5096345;28;20596;-71
2022/08/10 00:07:15;;;;;;;6.50;5.90;;;;;;;22.42;52.32;95026.97;5095983;28;20208;-71
2022/08/10 00:09:44;;;;;;;8.55;5.90;;;;;;;22.33;52.33;95028.34;5079478;28;20302;-71
2022/08/10 00:12:15;;;;;;;6.07;5.57;;;;;;;22.32;52.33;95028.75;5097016;28;20525;-71
2022/08/10 00:14:45;;;;;;;6.60;6.00;;;;;;;22.28;52.52;95025.22;5096698;28;20254;-71
2022/08/10 00:17:13;;;;;;;6.22;5.72;;;;;;;22.33;52.21;95022.72;5096269;28;20196;-71
2022/08/10 00:19:43;;;;;;;5.90;5.30;;;;;;;22.35;52.52;95022.28;5095659;28;20207;-71
2022/08/10 00:22:11;;;;;;;5.88;5.38;;;;;;;22.28;52.43;95014.78;5097084;28;20604;-71
2022/08/10 00:24:39;;;;;;;6.70;6.18;;;;;;;22.27;52.38;95016.00;5095996;28;20230;-71
2022/08/10 00:27:06;;;;;;;6.20;5.63;;;;;;;22.23;52.98;95015.28;5095537;28;20208;-71
2022/08/10 00:29:34;;;;;;;6.47;5.63;;;;;;;22.22;52.80;95015.69;5096368;28;20188;-72
2022/08/10 00:32:02;;;;;;;6.05;5.55;;;;;;;22.23;52.86;95023.72;5096090;28;20290;-72
2022/08/10 00:34:32;;;;;;;5.60;5.20;;;;;;;22.24;52.69;95021.69;5096763;28;20195;-72
2022/08/10 00:37:01;;;;;;;5.93;5.43;;;;;;;22.23;52.54;95022.91;5096436;28;20232;-72
2022/08/10 00:39:29;;;;;;;6.43;5.95;;;;;;;22.15;52.91;95021.44;5095520;28;20195;-72
2022/08/10 00:41:57;;;;;;;5.95;5.32;;;;;;;22.09;53.46;95018.31;5095534;28;20616;-72
2022/08/10 00:44:25;;;;;;;6.20;5.70;;;;;;;22.00;53.14;95018.84;5096475;28;20181;-72
2022/08/10 00:46:54;;;;;;;6.03;5.53;;;;;;;21.95;53.42;95027.00;5095780;28;20193;-72
2022/08/10 00:49:21;;;;;;;6.43;5.85;;;;;;;21.97;53.83;95027.34;5095482;28;20609;-72
2022/08/10 00:51:49;;;;;;;5.95;5.45;;;;;;;21.97;53.41;95024.53;5095989;28;20227;-72
2022/08/10 00:54:17;;;;;;;5.65;5.25;;;;;;;21.91;53.57;95040.31;5096265;28;20199;-72
2022/08/10 00:56:45;;;;;;;6.10;5.55;;;;;;;21.91;53.74;95038.28;5094660;28;20208;-72
2022/08/10 00:59:16;;;;;;;6.40;5.80;;;;;;;21.87;53.71;95037.56;5095290;28;20188;-72
2022/08/10 01:01:43;;;;;;;5.72;5.28;;;;;;;21.77;53.95;95044.13;5094896;28;20638;-72
2022/08/10 01:04:12;;;;;;;6.28;5.70;;;;;;;21.69;53.97;95039.88;5095274;28;20211;-72
2022/08/10 01:06:45;;;;;;;7.75;6.38;;;;;;;21.62;54.78;95037.97;5095807;28;20200;-72
2022/08/10 01:09:19;;;;;;;6.03;5.53;;;;;;;21.64;54.43;95043.94;5095175;28;20200;-72
2022/08/10 01:11:51;;;;;;;6.43;5.93;;;;;;;21.68;54.24;95041.06;5094875;28;20220;-72
2022/08/10 01:14:25;;;;;;;6.45;5.93;;;;;;;21.70;54.41;95039.44;5095870;28;20189;-72
2022/08/10 01:16:58;;;;;;;6.50;5.90;;;;;;;21.64;54.19;95041.13;5094611;28;20210;-72
2022/08/10 01:19:49;;;;;;;6.50;5.90;;;;;;;21.65;54.46;95036.34;5095299;28;20196;-72
2022/08/10 01:22:34;;;;;;;6.47;5.85;;;;;;;21.63;54.44;95036.75;5094853;28;20575;-72
2022/08/10 01:25:35;;;;;;;6.85;6.25;;;;;;;21.61;54.62;95037.19;5095146;28;20232;-72
2022/08/10 01:28:12;;;;;;;8.23;6.20;;;;;;;21.63;54.65;95037.53;5095414;28;20521;-72
2022/08/10 01:30:43;;;;;;;6.28;5.75;;;;;;;21.63;55.03;95034.72;5094955;28;20195;-72
2022/08/10 01:33:13;;;;;;;6.53;6.03;;;;;;;21.62;55.18;95026.75;5094371;28;20216;-72
2022/08/10 01:35:47;;;;;;;6.03;5.55;;;;;;;21.56;54.80;95034.84;5095556;28;20180;-72
2022/08/10 01:38:17;;;;;;;6.03;5.53;;;;;;;21.53;55.13;95034.88;5094612;28;20232;-72
2022/08/10 01:40:52;;;;;;;6.00;5.50;;;;;;;21.48;55.19;95035.38;5095223;28;20665;-72
2022/08/10 01:43:21;;;;;;;6.50;5.90;;;;;;;21.46;55.38;95033.00;5094553;28;20197;-71
2022/08/10 01:45:56;;;;;;;6.75;5.97;;;;;;;21.48;55.17;95035.38;5094513;28;20204;-72
2022/08/10 01:48:29;;;;;;;6.38;5.78;;;;;;;21.51;55.33;95042.97;5095133;28;20192;-72
2022/08/10 01:51:09;;;;;;;6.28;5.68;;;;;;;21.49;55.30;95034.16;5094763;28;20196;-72
2022/08/10 01:53:41;;;;;;;6.50;5.90;;;;;;;21.41;55.54;95024.28;5095288;28;20192;-72
2022/08/10 01:56:13;;;;;;;6.30;5.70;;;;;;;21.36;55.70;95028.34;5094371;28;20200;-72
2022/08/10 01:58:42;;;;;;;6.30;5.80;;;;;;;21.36;56.00;95026.34;5095312;28;20253;-72
2022/08/10 02:01:15;;;;;;;6.35;5.78;;;;;;;21.41;56.18;95022.25;5094913;28;20548;-72
2022/08/10 02:03:44;;;;;;;5.95;5.45;;;;;;;21.43;55.73;95019.03;5094217;28;20196;-72
2022/08/10 02:06:13;;;;;;;6.72;5.70;;;;;;;21.41;56.04;95015.84;5094585;28;20219;-72
2022/08/10 02:08:41;;;;;;;6.47;5.90;;;;;;;21.36;56.06;95017.13;5094656;28;20200;-72
2022/08/10 02:11:09;;;;;;;6.50;5.90;;;;;;;21.29;56.27;95017.22;5094836;28;20274;-72
2022/08/10 02:13:41;;;;;;;7.05;6.13;;;;;;;21.29;56.03;95018.00;5094190;28;20196;-72
2022/08/10 02:16:10;;;;;;;6.80;6.28;;;;;;;21.30;55.94;95013.19;5094206;28;20257;-72
2022/08/10 02:18:40;;;;;;;7.40;6.47;;;;;;;21.29;56.39;95011.59;5094375;28;20192;-72
2022/08/10 02:21:08;;;;;;;6.90;6.15;;;;;;;21.24;56.48;95014.88;5095283;28;20261;-71
2022/08/10 02:23:39;;;;;;;6.57;6.05;;;;;;;21.16;56.92;95023.38;5094207;28;20197;-72
2022/08/10 02:26:08;;;;;;;6.10;5.50;;;;;;;21.16;56.82;95017.78;5095354;28;20199;-72
2022/08/10 02:28:38;;;;;;;8.77;5.57;;;;;;;21.20;56.92;95019.72;5094396;28;20188;-72
2022/08/10 02:31:14;;;;;;;6.80;6.15;;;;;;;21.20;57.21;95025.34;5095780;28;20189;-72
2022/08/10 02:33:46;;;;;;;6.47;5.70;;;;;;;21.14;57.15;95017.41;5097656;28;20200;-72
2022/08/10 02:36:15;;;;;;;6.90;6.30;;;;;;;21.12;57.40;95028.25;5097794;28;20226;-72
2022/08/10 02:38:48;;;;;;;7.60;6.63;;;;;;;21.13;57.24;95023.44;5098104;28;20200;-72
2022/08/10 02:41:20;;;;;;;6.43;5.82;;;;;;;21.08;57.44;95026.72;5097837;28;20215;-72
2022/08/10 02:43:53;;;;;;;7.45;6.60;;;;;;;21.01;57.96;95035.22;5098874;28;20211;-72
2022/08/10 02:46:26;;;;;;;7.07;6.35;;;;;;;21.01;57.89;95026.81;5098924;28;20621;-72
2022/08/10 02:49:02;;;;;;;9.35;6.82;;;;;;;21.01;57.76;95038.03;5097938;28;20203;-71
2022/08/10 02:51:37;;;;;;;7.47;6.78;;;;;;;20.95;58.07;95031.31;5097743;28;20242;-72
2022/08/10 02:54:07;;;;;;;7.05;6.43;;;;;;;20.94;58.13;95038.13;5098576;28;20199;-72
2022/08/10 02:56:41;;;;;;;6.88;6.30;;;;;;;20.95;58.04;95039.72;5097683;28;20225;-72
2022/08/10 02:59:12;;;;;;;6.97;6.28;;;;;;;20.94;58.34;95036.13;5097660;28;20188;-71
2022/08/10 03:01:46;;;;;;;7.63;6.45;;;;;;;20.89;58.87;95039.41;5098436;28;20207;-71
2022/08/10 03:04:18;;;;;;;6.97;6.38;;;;;;;20.90;58.84;95038.19;5098358;28;20191;-71
2022/08/10 03:06:52;;;;;;;6.93;6.28;;;;;;;20.92;58.70;95036.56;5097451;28;20230;-71
2022/08/10 03:09:21;;;;;;;6.90;5.90;;;;;;;20.91;58.38;95037.78;5097569;28;20196;-71
2022/08/10 03:11:51;;;;;;;7.15;6.47;;;;;;;20.86;58.48;95038.22;5097848;28;20208;-71
2022/08/10 03:14:19;;;;;;;9.07;6.57;;;;;;;20.87;58.37;95037.00;5098376;28;20192;-71
2022/08/10 03:16:50;;;;;;;7.28;6.55;;;;;;;20.81;58.75;95035.91;5097462;28;20192;-71
2022/08/10 03:19:19;;;;;;;6.57;5.97;;;;;;;20.79;58.89;95046.72;5098231;28;20184;-71
2022/08/10 03:21:46;;;;;;;6.70;6.03;;;;;;;20.83;58.68;95044.66;5097193;28;20231;-71
2022/08/10 03:24:15;;;;;;;6.38;5.88;;;;;;;20.77;58.54;95042.75;5097466;28;20196;-71
2022/08/10 03:26:44;;;;;;;7.75;6.10;;;;;;;20.68;58.92;95049.66;5098234;28;20223;-71
2022/08/10 03:29:12;;;;;;;6.75;6.25;;;;;;;20.72;58.84;95044.00;5097984;28;20195;-71
2022/08/10 03:31:39;;;;;;;7.32;6.43;;;;;;;20.74;58.97;95052.00;5096719;28;20648;-71
2022/08/10 03:34:10;;;;;;;6.47;5.88;;;;;;;20.72;58.95;95049.63;5097033;28;20211;-71
2022/08/10 03:36:39;;;;;;;6.72;6.05;;;;;;;20.70;58.97;95045.63;5097355;28;20667;-71
2022/08/10 03:39:05;;;;;;;7.70;5.68;;;;;;;20.71;58.90;95045.22;5097478;28;20191;-71
2022/08/10 03:41:40;;;;;;;7.68;6.25;;;;;;;20.67;58.49;95041.69;5097384;28;20192;-71
2022/08/10 03:44:09;;;;;;;6.63;6.03;;;;;;;20.62;58.76;95051.31;5096030;28;20298;-71
2022/08/10 03:46:39;;;;;;;8.38;6.20;;;;;;;20.60;58.92;95055.78;5096623;28;20212;-72
2022/08/10 03:49:07;;;;;;;8.13;6.22;;;;;;;20.57;59.12;95056.59;5096703;28;20208;-71
2022/08/10 03:51:36;;;;;;;7.60;5.93;;;;;;;20.59;59.23;95059.81;5096541;28;20200;-71
2022/08/10 03:54:04;;;;;;;8.52;6.35;;;;;;;20.63;58.50;95060.56;5097105;28;20212;-72
2022/08/10 03:56:31;;;;;;;7.53;6.05;;;;;;;20.59;58.50;95060.59;5097397;28;20196;-72
2022/08/10 03:58:59;;;;;;;6.72;5.90;;;;;;;20.55;58.99;95059.84;5097474;28;20215;-71
2022/08/10 04:01:29;;;;;;;8.13;6.15;;;;;;;20.52;59.07;95063.47;5096379;28;20282;-72
2022/08/10 04:03:58;;;;;;;8.10;6.75;;;;;;;20.57;59.26;95057.41;5097263;28;20191;-69
2022/08/10 04:06:27;;;;;;;7.78;5.90;;;;;;;20.66;59.24;95065.28;5096075;28;20199;-69
2022/08/10 04:09:01;;;;;;;7.65;6.55;;;;;;;20.76;58.90;95063.59;5096208;28;20203;-69
2022/08/10 04:11:27;;;;;;;6.93;6.32;;;;;;;20.83;58.38;95067.09;5079829;28;20192;-69
2022/08/10 04:13:55;;;;;;;6.68;6.13;;;;;;;20.88;58.37;95068.66;5097235;28;20211;-69
2022/08/10 04:16:22;;;;;;;7.18;6.57;;;;;;;20.95;58.16;95078.97;5097024;28;20184;-69
2022/08/10 04:18:49;;;;;;;7.03;6.32;;;;;;;20.99;57.89;95074.09;5095968;28;20203;-71
2022/08/10 04:21:20;;;;;;;6.55;5.95;;;;;;;21.03;57.82;95077.69;5096697;28;20181;-71
2022/08/10 04:23:49;;;;;;;6.70;6.20;;;;;;;21.05;57.91;95080.84;5096833;28;20211;-71
2022/08/10 04:26:18;;;;;;;7.78;6.30;;;;;;;21.06;57.62;95086.03;5096246;28;20203;-71
2022/08/10 04:28:47;;;;;;;7.70;6.22;;;;;;;21.09;57.32;95075.97;5095916;28;20192;-71
2022/08/10 04:31:15;;;;;;;7.55;6.85;;;;;;;21.12;57.29;95075.94;5096747;28;20275;-71
2022/08/10 04:33:49;;;;;;;6.90;6.40;;;;;;;21.14;57.49;95075.53;5096408;28;20219;-71
2022/08/10 04:36:18;;;;;;;6.40;5.80;;;;;;;21.18;57.81;95069.88;5096301;28;20203;-70
2022/08/10 04:38:48;;;;;;;6.97;6.43;;;;;;;21.18;57.90;95070.66;5079045;28;20184;-70
2022/08/10 04:41:20;;;;;;;6.68;6.10;;;;;;;21.24;57.71;95082.19;5096515;28;20188;-70
2022/08/10 04:43:47;;;;;;;9.10;6.88;;;;;;;21.27;57.92;95075.72;5096232;28;20507;-70
2022/08/10 04:46:14;;;;;;;9.60;6.80;;;;;;;21.33;57.78;95083.28;5096387;28;20185;-70
2022/08/10 04:48:43;;;;;;;9.35;6.90;;;;;;;21.36;57.94;95081.66;5095536;28;20196;-70
2022/08/10 04:51:12;;;;;;;7.40;6.78;;;;;;;21.41;58.11;95078.38;5096327;28;20223;-70
2022/08/10 04:53:40;;;;;;;8.13;7.40;;;;;;;21.45;57.78;95072.69;5096137;28;20212;-70
2022/08/10 04:56:08;;;;;;;6.78;6.18;;;;;;;21.50;58.06;95073.03;5095383;28;20181;-70
2022/08/10 04:58:41;;;;;;;7.78;7.03;;;;;;;21.61;58.22;95072.88;5095357;28;20204;-71
2022/08/10 05:01:10;;;;;;;7.32;6.72;;;;;;;21.87;57.73;95074.84;5096162;28;20212;-71
2022/08/10 05:03:38;;;;;;;7.50;6.82;;;;;;;22.08;57.47;95078.53;5095423;28;20211;-71
2022/08/10 05:06:06;;;;;;;8.07;6.90;;;;;;;21.95;57.73;95086.75;5095022;28;20200;-71
2022/08/10 05:08:32;;;;;;;8.20;6.82;;;;;;;21.83;58.29;95079.72;5095204;28;20211;-71
2022/08/10 05:11:01;;;;;;;8.15;7.50;;;;;;;21.76;58.59;95087.47;5096036;28;20295;-71
2022/08/10 05:13:29;;;;;;;7.60;7.00;;;;;;;21.78;58.70;95083.00;5094990;28;20212;-71
2022/08/10 05:15:57;;;;;;;7.35;6.63;;;;;;;21.78;58.90;95085.00;5095945;28;20265;-71
2022/08/10 05:18:25;;;;;;;7.85;7.15;;;;;;;21.79;59.22;95087.41;5095256;28;20196;-71
2022/08/10 05:20:53;;;;;;;7.90;7.10;;;;;;;21.78;59.61;95076.59;5095853;28;20188;-70
2022/08/10 05:23:19;;;;;;;8.10;7.40;;;;;;;21.77;59.98;95089.84;5095609;28;20184;-70
2022/08/10 05:25:47;;;;;;;8.80;8.00;;;;;;;21.81;60.02;95096.19;5095478;28;20495;-70
2022/08/10 05:28:15;;;;;;;9.77;7.18;;;;;;;21.83;60.13;95085.34;5095157;28;20200;-70
2022/08/10 05:30:43;;;;;;;8.02;7.32;;;;;;;21.97;59.82;95089.94;5094638;28;20196;-70
2022/08/10 05:33:13;;;;;;;8.43;7.72;;;;;;;21.98;60.22;95091.50;5095564;28;20208;-70
2022/08/10 05:35:45;;;;;;;8.93;8.13;;;;;;;21.99;60.47;95079.06;5094626;28;20202;-70
2022/08/10 05:38:13;;;;;;;8.85;8.15;;;;;;;21.97;60.97;95086.31;5094070;28;20232;-70
2022/08/10 05:40:42;;;;;;;9.43;8.60;;;;;;;21.97;61.15;95095.56;5078271;28;20203;-70
2022/08/10 05:43:10;;;;;;;9.85;8.85;;;;;;;21.98;61.04;95080.28;5077469;28;20204;-70
2022/08/10 05:45:42;;;;;;;9.52;8.73;;;;;;;21.99;61.62;95089.50;5095191;28;20172;-70
2022/08/10 05:48:10;;;;;;;9.35;8.50;;;;;;;22.06;60.83;95087.34;5094763;28;20243;-70
2022/08/10 05:50:41;;;;;;;9.27;7.70;;;;;;;22.19;59.69;95089.59;5094501;28;20204;-70
2022/08/10 05:53:07;;;;;;;10.35;9.30;;;;;;;22.26;60.49;95084.66;5095385;28;20211;-71
2022/08/10 05:55:34;;;;;;;10.95;9.95;;;;;;;22.27;60.04;95088.25;5094609;28;20200;-71
2022/08/10 05:58:02;;;;;;;11.77;10.68;;;;;;;22.31;59.89;95083.34;5094788;28;20671;-70
2022/08/10 06:00:30;;;;;;;11.43;10.38;;;;;;;22.33;59.77;95084.53;5094976;28;20508;-70
2022/08/10 06:03:00;;;;;;;13.90;11.77;;;;;;;22.40;59.71;95088.41;5094620;28;20188;-71
2022/08/10 06:05:30;;;;;;;12.07;10.85;;;;;;;22.33;59.63;95081.72;5095876;28;20184;-71
2022/08/10 06:08:04;;;;;;;9.95;9.00;;;;;;;22.47;59.11;95088.28;5098922;28;20196;-71
2022/08/10 06:10:34;;;;;;;14.68;12.27;;;;;;;22.44;59.76;95092.75;5099634;28;20192;-70
2022/08/10 06:15:46;;;;;;;13.35;12.05;;;;;;;22.29;61.03;95088.59;5020762;28;20237;-70
2022/08/10 06:18:14;;;;;;;11.95;10.85;;;;;;;22.29;60.76;95097.81;5037441;28;20214;-70
2022/08/10 06:20:42;;;;;;;12.70;11.02;;;;;;;22.42;59.96;95088.78;5020760;28;20301;-69
2022/08/10 06:23:10;;;;;;;11.48;10.48;;;;;;;22.55;59.24;95090.53;5037320;28;20191;-69
2022/08/10 06:25:37;;;;;;;13.55;11.90;;;;;;;22.69;58.80;95085.84;5020298;28;20289;-69
2022/08/10 06:28:07;;;;;;;12.68;11.45;;;;;;;22.66;59.26;95084.72;5021056;28;20206;-69
2022/08/10 06:30:35;;;;;;;12.88;11.77;;;;;;;22.61;59.26;95090.81;5021068;28;20198;-72
2022/08/10 06:33:04;;;;;;;14.32;13.02;;;;;;;22.56;59.84;95097.75;5020577;28;20226;-72
2022/08/10 06:35:33;;;;;;;14.98;13.48;;;;;;;22.55;60.12;95103.81;5020609;28;20213;-71
2022/08/10 06:38:04;;;;;;;12.88;11.55;;;;;;;22.64;59.12;95100.41;5020852;28;20249;-70
2022/08/10 06:40:40;;;;;;;14.73;13.13;;;;;;;22.82;59.16;95095.25;5036959;28;20214;-70
2022/08/10 06:43:10;;;;;;;12.05;10.98;;;;;;;22.88;58.69;95092.72;5020477;28;20209;-71
2022/08/10 06:45:42;;;;;;;14.00;12.65;;;;;;;22.89;59.36;95097.13;5036859;28;20205;-70
2022/08/10 06:48:14;;;;;;;13.43;12.15;;;;;;;22.82;59.09;95090.41;5020831;28;20305;-70
2022/08/10 06:50:46;;;;;;;12.20;11.10;;;;;;;22.96;57.92;95092.19;5020498;28;20234;-71
2022/08/10 06:53:17;;;;;;;13.30;11.70;;;;;;;23.09;57.66;95088.69;5072290;28;20235;-71
2022/08/10 06:55:55;;;;;;;13.52;12.25;;;;;;;23.22;57.35;95096.03;5097754;28;20196;-71
2022/08/10 06:58:28;;;;;;;12.15;11.15;;;;;;;23.28;56.75;95091.50;5097912;28;20200;-71
2022/08/10 07:00:57;;;;;;;11.85;10.75;;;;;;;23.36;56.48;95094.16;5097998;28;20200;-72
2022/08/10 07:03:33;;;;;;;12.43;11.15;;;;;;;23.40;56.62;95083.63;5098683;28;20192;-71
2022/08/10 07:06:03;;;;;;;13.57;12.27;;;;;;;23.35;56.90;95087.75;5098582;28;20198;-70
2022/08/10 07:08:35;;;;;;;11.85;10.35;;;;;;;23.30;56.25;95085.44;5098293;28;20510;-71
2022/08/10 07:11:05;;;;;;;14.00;12.77;;;;;;;23.29;56.97;95084.63;5097512;28;20200;-71
2022/08/10 07:13:32;;;;;;;12.07;11.05;;;;;;;23.32;56.64;95090.63;5097894;28;20694;-73
2022/08/10 07:15:59;;;;;;;12.88;11.68;;;;;;;23.41;56.33;95085.97;5097551;28;20204;-73
2022/08/10 07:18:31;;;;;;;13.15;11.95;;;;;;;23.41;57.24;95085.19;5096581;28;20196;-72
2022/08/10 07:21:03;;;;;;;12.60;11.40;;;;;;;23.48;56.14;95082.22;5097050;28;20196;-72
2022/08/10 07:23:34;;;;;;;11.50;10.52;;;;;;;23.62;55.60;95086.75;5097192;28;20226;-71
2022/08/10 07:26:12;;;;;;;14.68;13.30;;;;;;;23.61;56.19;95085.16;5097357;28;20215;-69
2022/08/10 07:28:41;;;;;;;13.68;12.48;;;;;;;23.45;56.10;95085.91;5098177;28;20499;-69
2022/08/10 07:31:08;;;;;;;15.30;13.80;;;;;;;23.31;56.23;95078.56;5097258;28;20200;-69
2022/08/10 07:33:36;;;;;;;13.90;12.52;;;;;;;23.24;56.68;95082.34;5096881;28;20219;-69
2022/08/10 07:36:04;;;;;;;13.43;12.15;;;;;;;23.23;57.38;95083.56;5097346;28;20201;-69
2022/08/10 07:38:33;;;;;;;12.77;11.52;;;;;;;23.25;56.77;95072.69;5096273;28;20208;-72
2022/08/10 07:41:01;;;;;;;12.90;11.63;;;;;;;23.30;56.26;95077.78;5097983;28;20272;-71
2022/08/10 07:43:37;;;;;;;13.00;11.88;;;;;;;23.38;55.87;95074.81;5097379;28;20199;-71
2022/08/10 07:46:10;;;;;;;11.98;10.98;;;;;;;23.60;55.38;95084.34;5097974;28;20176;-71
2022/08/10 07:48:42;;;;;;;11.95;10.85;;;;;;;23.66;54.96;95079.00;5097282;28;20201;-72
2022/08/10 07:51:11;;;;;;;11.70;10.68;;;;;;;23.72;54.32;95072.44;5097044;28;20212;-72
2022/08/10 07:53:44;;;;;;;11.25;10.18;;;;;;;23.88;53.42;95070.88;5097270;28;20223;-71
2022/08/10 07:56:12;;;;;;;10.30;9.38;;;;;;;24.01;52.67;95066.91;5097411;28;20627;-71
2022/08/10 07:58:46;;;;;;;10.63;9.63;;;;;;;24.12;52.26;95065.84;5096718;28;20204;-72
2022/08/10 08:01:15;;;;;;;9.57;8.77;;;;;;;24.17;52.10;95062.50;5096996;28;20192;-72
2022/08/10 08:03:44;;;;;;;9.82;8.95;;;;;;;24.22;51.90;95067.59;5096460;28;20207;-71
2022/08/10 08:06:14;;;;;;;9.07;8.23;;;;;;;24.29;51.12;95064.56;5096681;28;20207;-73
2022/08/10 08:08:45;;;;;;;9.68;8.88;;;;;;;24.34;51.19;95066.09;5097043;28;20341;-73
2022/08/10 08:11:14;;;;;;;9.43;8.63;;;;;;;24.41;50.88;95063.13;5096425;28;20208;-72
2022/08/10 08:13:43;;;;;;;8.80;8.00;;;;;;;24.47;50.58;95059.31;5096502;28;20224;-72
2022/08/10 08:16:11;;;;;;;8.43;7.72;;;;;;;24.53;49.69;95061.59;5096907;28;20196;-73
2022/08/10 08:18:42;;;;;;;7.75;7.15;;;;;;;24.59;49.20;95057.00;5096112;28;20643;-73
2022/08/10 08:21:09;;;;;;;7.70;7.10;;;;;;;24.62;48.79;95062.53;5096474;28;20283;-73
2022/08/10 08:23:37;;;;;;;7.53;6.93;;;;;;;24.66;48.96;95057.59;5096231;28;20193;-71
2022/08/10 08:26:06;;;;;;;7.35;6.75;;;;;;;24.69;48.98;95062.34;5095620;28;20191;-71
2022/08/10 08:28:36;;;;;;;8.43;7.68;;;;;;;24.70;48.81;95057.50;5095663;28;20196;-71
2022/08/10 08:31:06;;;;;;;7.30;6.70;;;;;;;24.71;48.85;95051.41;5096077;28;20208;-73
2022/08/10 08:33:33;;;;;;;7.43;6.82;;;;;;;24.73;48.53;95053.78;5095601;28;20643;-72
2022/08/10 08:36:02;;;;;;;8.30;7.50;;;;;;;24.77;48.90;95051.66;5095576;28;20200;-73
2022/08/10 08:38:29;;;;;;;9.73;8.73;;;;;;;24.85;49.59;95046.59;5095980;28;20204;-73
2022/08/10 08:41:04;;;;;;;9.10;8.23;;;;;;;24.87;49.17;95044.09;5095681;28;20195;-73
2022/08/10 08:43:55;;;;;;;9.32;8.45;;;;;;;24.91;49.33;95051.25;5095809;28;20207;-73
2022/08/10 08:46:37;;;;;;;8.15;7.45;;;;;;;25.01;48.70;95051.38;5096452;28;20204;-70
2022/08/10 08:49:23;;;;;;;8.95;8.20;;;;;;;25.07;48.77;95052.41;5096310;28;20342;-71
2022/08/10 08:51:58;;;;;;;8.70;7.90;;;;;;;25.07;48.16;95043.94;5095581;28;20192;-74
2022/08/10 08:54:41;;;;;;;9.15;8.32;;;;;;;25.13;48.83;95045.78;5095379;28;20640;-74
2022/08/10 08:57:16;;;;;;;9.63;8.65;;;;;;;25.24;49.78;95050.31;5095031;28;20200;-72
2022/08/10 08:59:53;;;;;;;9.07;8.27;;;;;;;25.35;48.59;95047.97;5095391;28;20211;-71
2022/08/10 09:02:34;;;;;;;8.00;7.40;;;;;;;25.42;48.18;95048.53;5095774;28;20196;-71
2022/08/10 09:05:22;;;;;;;9.20;8.40;;;;;;;25.48;48.05;95045.94;5095521;28;20188;-71
2022/08/10 09:08:11;;;;;;;7.95;7.32;;;;;;;25.58;49.35;95044.81;5095254;28;20211;-70
2022/08/10 09:10:46;;;;;;;8.65;7.90;;;;;;;25.78;47.98;95041.78;5095569;28;20192;-71
2022/08/10 09:13:25;;;;;;;9.07;8.20;;;;;;;25.88;47.22;95037.03;5095204;28;20210;-71
2022/08/10 09:16:02;;;;;;;8.48;7.78;;;;;;;25.91;47.22;95028.44;5095072;28;20206;-71
2022/08/10 09:18:40;;;;;;;8.73;8.02;;;;;;;25.92;46.36;95023.56;5094959;28;20203;-71
2022/08/10 09:21:13;;;;;;;9.32;8.52;;;;;;;25.97;46.15;95030.72;5094991;28;20201;-70
2022/08/10 09:23:49;;;;;;;9.23;8.43;;;;;;;26.00;45.89;95029.78;5094704;28;20185;-70
2022/08/10 09:26:20;;;;;;;8.57;7.70;;;;;;;25.86;46.03;95019.75;5095683;28;20223;-71
2022/08/10 09:28:50;;;;;;;8.63;7.93;;;;;;;25.76;46.54;95018.81;5094607;28;20202;-71
2022/08/10 09:31:21;;;;;;;7.35;6.60;;;;;;;25.69;46.07;95022.66;5095110;28;20200;-71
2022/08/10 09:34:00;;;;;;;7.68;6.97;;;;;;;25.63;46.35;95021.66;5094528;28;20212;-71
2022/08/10 09:36:33;;;;;;;7.20;6.60;;;;;;;25.69;45.86;95010.59;5094566;28;20228;-71
2022/08/10 09:39:11;;;;;;;6.60;5.75;;;;;;;25.88;45.27;95005.97;5095105;28;20222;-71
2022/08/10 09:41:49;;;;;;;5.32;4.93;;;;;;;25.93;44.83;95011.84;5093960;28;20249;-71
2022/08/10 09:44:38;;;;;;;5.80;5.30;;;;;;;26.02;44.31;95007.53;5094545;28;20203;-71
2022/08/10 09:47:27;;;;;;;5.20;4.70;;;;;;;26.17;44.01;95014.25;5094631;28;20287;-71
2022/08/10 09:50:11;;;;;;;6.10;5.60;;;;;;;26.22;43.55;95012.88;5094451;28;20200;-72
2022/08/10 09:53:03;;;;;;;6.72;6.13;;;;;;;26.25;42.21;95011.97;5094897;28;20200;-71
2022/08/10 09:55:40;;;;;;;7.35;6.82;;;;;;;26.27;42.42;95007.44;5094261;28;20208;-71
2022/08/10 09:58:27;;;;;;;6.50;5.90;;;;;;;26.38;43.12;95010.69;5095142;28;20208;-72
2022/08/10 10:01:01;;;;;;;5.38;4.88;;;;;;;26.61;42.63;95000.22;5094853;28;20196;-71
2022/08/10 10:03:33;;;;;;;6.00;5.40;;;;;;;26.68;42.59;95013.31;5094769;28;20220;-70
2022/08/10 10:06:09;;;;;;;5.60;5.10;;;;;;;26.71;42.12;94998.25;5094592;28;20200;-72
2022/08/10 10:08:45;;;;;;;5.35;4.95;;;;;;;26.70;42.04;94999.50;5095135;28;20291;-72
2022/08/10 10:11:22;;;;;;;5.28;4.55;;;;;;;26.76;42.18;95000.47;5094597;28;20273;-72
2022/08/10 10:13:58;;;;;;;4.80;4.50;;;;;;;26.93;42.21;94995.41;5094426;28;20200;-71
2022/08/10 10:16:46;;;;;;;5.57;5.07;;;;;;;26.87;41.47;94990.38;5094396;28;20207;-70
2022/08/10 10:19:27;;;;;;;5.22;4.72;;;;;;;26.80;42.25;94995.50;5094427;28;20193;-70
2022/08/10 10:22:07;;;;;;;5.00;4.57;;;;;;;26.69;41.56;94993.06;5077585;28;20196;-70
2022/08/10 10:24:41;;;;;;;5.22;4.93;;;;;;;26.61;42.01;94989.69;5094127;28;20200;-69
2022/08/10 10:27:29;;;;;;;5.13;4.50;;;;;;;26.53;42.22;94990.41;5093896;28;20260;-69
2022/08/10 10:30:03;;;;;;;5.07;4.68;;;;;;;26.50;42.37;94992.13;5093928;28;20207;-69
2022/08/10 10:32:44;;;;;;;4.90;4.60;;;;;;;26.56;40.99;94990.28;5094148;28;20199;-69
2022/08/10 10:35:19;;;;;;;4.53;4.18;;;;;;;26.54;41.57;94980.69;5094027;28;20231;-69
2022/08/10 10:37:50;;;;;;;22.02;20.00;;;;;;;26.50;42.31;94982.84;5093697;28;20663;-69
2022/08/10 10:40:18;;;;;;;12.98;11.77;;;;;;;26.55;42.30;94980.25;5094386;28;20260;-69
2022/08/10 10:42:59;;;;;;;6.75;6.03;;;;;;;26.61;42.21;94971.94;5094127;28;20197;-69
2022/08/10 10:45:34;;;;;;;7.95;7.15;;;;;;;26.69;42.81;94970.44;5094032;28;20199;-69
2022/08/10 10:48:09;;;;;;;7.35;6.75;;;;;;;26.82;42.18;94981.69;5094029;28;20200;-69
2022/08/10 10:50:44;;;;;;;7.10;6.60;;;;;;;26.87;42.28;94969.75;5093797;28;20199;-69
2022/08/10 10:53:19;;;;;;;6.80;6.18;;;;;;;26.86;42.36;94971.78;5096654;28;20253;-69
2022/08/10 10:55:50;;;;;;;6.47;5.97;;;;;;;26.91;42.02;94975.28;5097224;28;20219;-69
2022/08/10 10:58:25;;;;;;;6.18;5.60;;;;;;;26.86;42.03;94963.31;5098041;28;20200;-69
2022/08/10 11:00:59;;;;;;;5.97;5.47;;;;;;;26.87;42.10;94966.91;5098041;28;20238;-71
2022/08/10 11:03:47;;;;;;;8.07;5.70;;;;;;;26.97;42.91;94957.25;5097699;28;20196;-69
2022/08/10 11:06:21;;;;;;;6.03;5.30;;;;;;;27.09;41.80;94964.09;5098176;28;20196;-70
2022/08/10 11:08:57;;;;;;;8.75;6.03;;;;;;;27.14;41.83;94957.84;5097759;28;20200;-70
2022/08/10 11:11:28;;;;;;;6.28;5.53;;;;;;;27.19;41.45;94960.06;5097239;28;20204;-70
2022/08/10 11:14:08;;;;;;;5.18;4.78;;;;;;;27.26;41.52;94961.81;5097806;28;20207;-70
2022/08/10 11:16:42;;;;;;;5.68;5.18;;;;;;;27.31;41.18;94966.91;5097213;28;20299;-70
2022/08/10 11:19:18;;;;;;;5.47;5.05;;;;;;;27.36;41.34;94969.91;5097556;28;20191;-69
2022/08/10 11:22:05;;;;;;;5.70;5.30;;;;;;;27.29;41.18;94970.19;5097311;28;20192;-70
2022/08/10 11:24:46;;;;;;;5.60;5.10;;;;;;;27.22;41.15;94964.00;5097610;28;20192;-69
2022/08/10 11:27:19;;;;;;;5.32;4.85;;;;;;;27.17;41.73;94961.78;5097457;28;20196;-68
2022/08/10 11:29:54;;;;;;;5.82;5.22;;;;;;;27.17;41.71;94965.41;5097026;28;20215;-68
2022/08/10 11:32:31;;;;;;;5.60;5.10;;;;;;;27.11;41.36;94965.22;5097036;28;20203;-69
2022/08/10 11:35:03;;;;;;;5.63;5.03;;;;;;;27.06;41.35;94962.19;5097270;28;20216;-69
2022/08/10 11:37:38;;;;;;;5.15;4.80;;;;;;;26.98;41.62;94958.84;5096412;28;20238;-69
2022/08/10 11:40:13;;;;;;;5.50;5.00;;;;;;;26.91;41.23;94956.28;5096953;28;20270;-69
2022/08/10 11:42:44;;;;;;;5.00;4.60;;;;;;;26.79;41.18;94948.63;5097028;28;20195;-69
2022/08/10 11:45:16;;;;;;;5.03;4.57;;;;;;;26.74;41.37;94943.59;5096718;28;20188;-69
2022/08/10 11:47:48;;;;;;;4.95;4.55;;;;;;;26.70;41.47;94940.91;5096475;28;20287;-69
2022/08/10 11:50:22;;;;;;;5.13;4.82;;;;;;;26.66;41.49;94930.97;5096631;28;20215;-69
2022/08/10 11:53:04;;;;;;;5.38;4.97;;;;;;;26.60;41.69;94934.38;5096731;28;20210;-69
2022/08/10 11:55:35;;;;;;;5.30;4.90;;;;;;;26.56;41.35;94930.13;5096289;28;20247;-69
2022/08/10 11:59:55;;;;;;;5.50;5.10;;;;;;;26.53;41.89;94937.47;5096916;28;20192;-69